Jonesboro, Texas
Current Conditions -  °F | °C
As of 4:55 AM on Friday 19 Dec 2014 (Local Time) from KGOP Reporting Station
Thunderstorm Thunderstorm  
Wind Chill:   Ceiling: 300
Heat Index:   Visibility: 3mi
Dew Point:   Wind: 13mph
Humidity: 100%   Direction: 340°NNW
Pressure: 30.14"   Gusts: NA
Location:  31.61°N, 97.88°W
Report Text: KGOP 191055Z AUTO 34011KT 3SM VCTS OVC003 08/08 A3014 RMK AO2 LTG DSNT SW-NW PWINO
Loading
Personal Weather Stations






























Interactive Weather Map New forecast layout! Learn more

10-Day Weather Forecast

Advertisements
Track Severe Weather on mobile